sensor_id;sensor_type;location;lat;lon;timestamp;P1;durP1;ratioP1;P2;durP2;ratioP2
18172;SDS011;9211;48.818;9.312;2023-05-10T00:00:34;1.67;;;1.15;;
18172;SDS011;9211;48.818;9.312;2023-05-10T00:03:01;2.20;;;1.20;;
18172;SDS011;9211;48.818;9.312;2023-05-10T00:05:29;3.42;;;1.33;;
18172;SDS011;9211;48.818;9.312;2023-05-10T00:07:56;2.45;;;1.30;;
18172;SDS011;9211;48.818;9.312;2023-05-10T00:10:23;2.10;;;1.00;;
18172;SDS011;9211;48.818;9.312;2023-05-10T00:12:50;2.90;;;0.82;;
18172;SDS011;9211;48.818;9.312;2023-05-10T00:15:18;3.22;;;1.02;;
18172;SDS011;9211;48.818;9.312;2023-05-10T00:17:45;3.88;;;1.42;;
18172;SDS011;9211;48.818;9.312;2023-05-10T00:20:12;3.10;;;0.80;;
18172;SDS011;9211;48.818;9.312;2023-05-10T00:22:39;2.05;;;0.50;;
18172;SDS011;9211;48.818;9.312;2023-05-10T00:25:07;0.77;;;0.50;;
18172;SDS011;9211;48.818;9.312;2023-05-10T00:27:35;1.75;;;0.40;;
18172;SDS011;9211;48.818;9.312;2023-05-10T00:30:02;0.32;;;0.30;;
18172;SDS011;9211;48.818;9.312;2023-05-10T00:32:31;2.55;;;0.30;;
18172;SDS011;9211;48.818;9.312;2023-05-10T00:34:58;1.10;;;0.30;;
18172;SDS011;9211;48.818;9.312;2023-05-10T00:37:26;0.63;;;0.20;;
18172;SDS011;9211;48.818;9.312;2023-05-10T00:39:53;1.60;;;0.30;;
18172;SDS011;9211;48.818;9.312;2023-05-10T00:42:21;3.00;;;0.30;;
18172;SDS011;9211;48.818;9.312;2023-05-10T00:44:48;0.70;;;0.28;;
18172;SDS011;9211;48.818;9.312;2023-05-10T00:47:15;0.65;;;0.28;;
18172;SDS011;9211;48.818;9.312;2023-05-10T00:49:44;2.30;;;0.30;;
18172;SDS011;9211;48.818;9.312;2023-05-10T00:52:11;4.57;;;0.30;;
18172;SDS011;9211;48.818;9.312;2023-05-10T00:54:38;4.18;;;0.98;;
18172;SDS011;9211;48.818;9.312;2023-05-10T00:57:05;1.40;;;0.20;;
18172;SDS011;9211;48.818;9.312;2023-05-10T00:59:33;0.68;;;0.30;;
18172;SDS011;9211;48.818;9.312;2023-05-10T01:02:00;0.87;;;0.27;;
18172;SDS011;9211;48.818;9.312;2023-05-10T01:04:28;2.80;;;0.25;;
18172;SDS011;9211;48.818;9.312;2023-05-10T01:06:57;2.20;;;0.20;;
18172;SDS011;9211;48.818;9.312;2023-05-10T01:09:24;4.68;;;0.30;;
18172;SDS011;9211;48.818;9.312;2023-05-10T01:11:52;0.20;;;0.20;;
18172;SDS011;9211;48.818;9.312;2023-05-10T01:14:20;1.80;;;0.30;;
18172;SDS011;9211;48.818;9.312;2023-05-10T01:16:48;0.50;;;0.20;;
18172;SDS011;9211;48.818;9.312;2023-05-10T01:19:17;1.88;;;0.30;;
18172;SDS011;9211;48.818;9.312;2023-05-10T01:21:49;1.00;;;0.30;;
18172;SDS011;9211;48.818;9.312;2023-05-10T01:33:27;1.10;;;0.20;;
18172;SDS011;9211;48.818;9.312;2023-05-10T01:36:01;0.40;;;0.20;;
18172;SDS011;9211;48.818;9.312;2023-05-10T01:38:33;0.30;;;0.30;;
18172;SDS011;9211;48.818;9.312;2023-05-10T01:41:09;0.63;;;0.30;;
18172;SDS011;9211;48.818;9.312;2023-05-10T01:43:42;0.88;;;0.38;;
18172;SDS011;9211;48.818;9.312;2023-05-10T01:46:20;0.30;;;0.30;;
18172;SDS011;9211;48.818;9.312;2023-05-10T01:48:57;1.40;;;0.32;;
18172;SDS011;9211;48.818;9.312;2023-05-10T01:51:27;0.70;;;0.38;;
18172;SDS011;9211;48.818;9.312;2023-05-10T01:54:02;0.88;;;0.40;;
18172;SDS011;9211;48.818;9.312;2023-05-10T01:56:32;1.50;;;0.40;;
18172;SDS011;9211;48.818;9.312;2023-05-10T01:59:01;2.00;;;0.30;;
18172;SDS011;9211;48.818;9.312;2023-05-10T02:01:32;1.20;;;0.43;;
18172;SDS011;9211;48.818;9.312;2023-05-10T02:04:03;2.08;;;0.40;;
18172;SDS011;9211;48.818;9.312;2023-05-10T02:06:32;0.40;;;0.32;;
18172;SDS011;9211;48.818;9.312;2023-05-10T02:09:02;0.85;;;0.40;;
18172;SDS011;9211;48.818;9.312;2023-05-10T02:11:30;1.33;;;0.40;;
18172;SDS011;9211;48.818;9.312;2023-05-10T02:13:58;0.80;;;0.40;;
18172;SDS011;9211;48.818;9.312;2023-05-10T02:16:27;0.43;;;0.40;;
18172;SDS011;9211;48.818;9.312;2023-05-10T02:18:55;0.50;;;0.40;;
18172;SDS011;9211;48.818;9.312;2023-05-10T02:21:26;0.60;;;0.50;;
18172;SDS011;9211;48.818;9.312;2023-05-10T02:23:56;0.70;;;0.40;;
18172;SDS011;9211;48.818;9.312;2023-05-10T02:26:24;2.65;;;0.40;;
18172;SDS011;9211;48.818;9.312;2023-05-10T02:28:52;0.50;;;0.40;;
18172;SDS011;9211;48.818;9.312;2023-05-10T02:31:21;3.03;;;0.60;;
18172;SDS011;9211;48.818;9.312;2023-05-10T02:33:49;2.10;;;0.50;;
18172;SDS011;9211;48.818;9.312;2023-05-10T02:36:17;1.50;;;0.43;;
18172;SDS011;9211;48.818;9.312;2023-05-10T02:38:48;1.30;;;0.60;;
18172;SDS011;9211;48.818;9.312;2023-05-10T02:41:16;1.95;;;0.60;;
18172;SDS011;9211;48.818;9.312;2023-05-10T02:43:47;2.40;;;0.60;;
18172;SDS011;9211;48.818;9.312;2023-05-10T02:46:16;4.15;;;0.60;;
18172;SDS011;9211;48.818;9.312;2023-05-10T02:48:43;4.88;;;0.77;;
18172;SDS011;9211;48.818;9.312;2023-05-10T02:51:11;1.85;;;0.55;;
18172;SDS011;9211;48.818;9.312;2023-05-10T02:53:43;1.05;;;0.60;;
18172;SDS011;9211;48.818;9.312;2023-05-10T02:56:14;0.60;;;0.50;;
18172;SDS011;9211;48.818;9.312;2023-05-10T02:58:46;1.60;;;0.60;;
18172;SDS011;9211;48.818;9.312;2023-05-10T03:01:13;1.77;;;0.50;;
18172;SDS011;9211;48.818;9.312;2023-05-10T03:03:40;0.57;;;0.50;;
18172;SDS011;9211;48.818;9.312;2023-05-10T03:06:07;0.95;;;0.65;;
18172;SDS011;9211;48.818;9.312;2023-05-10T03:08:35;2.20;;;0.77;;
18172;SDS011;9211;48.818;9.312;2023-05-10T03:11:08;3.03;;;0.85;;
18172;SDS011;9211;48.818;9.312;2023-05-10T03:13:49;2.00;;;0.70;;
18172;SDS011;9211;48.818;9.312;2023-05-10T03:16:29;1.90;;;0.95;;
18172;SDS011;9211;48.818;9.312;2023-05-10T03:19:05;1.55;;;0.80;;
18172;SDS011;9211;48.818;9.312;2023-05-10T03:21:37;1.60;;;0.70;;
18172;SDS011;9211;48.818;9.312;2023-05-10T03:24:08;2.13;;;0.70;;
18172;SDS011;9211;48.818;9.312;2023-05-10T03:26:41;1.00;;;0.60;;
18172;SDS011;9211;48.818;9.312;2023-05-10T03:29:14;1.60;;;0.55;;
18172;SDS011;9211;48.818;9.312;2023-05-10T03:31:43;1.55;;;0.70;;
18172;SDS011;9211;48.818;9.312;2023-05-10T03:34:10;1.83;;;0.60;;
18172;SDS011;9211;48.818;9.312;2023-05-10T03:36:37;1.95;;;0.70;;
18172;SDS011;9211;48.818;9.312;2023-05-10T03:39:04;1.55;;;0.60;;
18172;SDS011;9211;48.818;9.312;2023-05-10T03:41:32;3.03;;;0.70;;
18172;SDS011;9211;48.818;9.312;2023-05-10T03:44:01;2.85;;;0.73;;
18172;SDS011;9211;48.818;9.312;2023-05-10T03:46:28;1.20;;;0.70;;
18172;SDS011;9211;48.818;9.312;2023-05-10T03:48:55;2.35;;;0.70;;
18172;SDS011;9211;48.818;9.312;2023-05-10T03:51:22;1.50;;;0.68;;
18172;SDS011;9211;48.818;9.312;2023-05-10T03:53:53;2.45;;;0.60;;
18172;SDS011;9211;48.818;9.312;2023-05-10T03:56:20;2.00;;;0.70;;
18172;SDS011;9211;48.818;9.312;2023-05-10T03:58:47;2.13;;;0.77;;
18172;SDS011;9211;48.818;9.312;2023-05-10T04:01:15;1.67;;;1.00;;
18172;SDS011;9211;48.818;9.312;2023-05-10T04:03:42;1.63;;;0.77;;
18172;SDS011;9211;48.818;9.312;2023-05-10T04:06:11;1.65;;;0.90;;
18172;SDS011;9211;48.818;9.312;2023-05-10T04:08:38;1.83;;;0.70;;
18172;SDS011;9211;48.818;9.312;2023-05-10T04:11:05;1.25;;;0.73;;
18172;SDS011;9211;48.818;9.312;2023-05-10T04:13:33;2.55;;;0.70;;
18172;SDS011;9211;48.818;9.312;2023-05-10T04:16:00;1.27;;;0.70;;
18172;SDS011;9211;48.818;9.312;2023-05-10T04:18:28;1.00;;;0.80;;
18172;SDS011;9211;48.818;9.312;2023-05-10T04:20:55;2.13;;;0.82;;
18172;SDS011;9211;48.818;9.312;2023-05-10T04:23:22;1.80;;;0.60;;
18172;SDS011;9211;48.818;9.312;2023-05-10T04:25:49;1.30;;;0.90;;
18172;SDS011;9211;48.818;9.312;2023-05-10T04:28:16;2.08;;;0.90;;
18172;SDS011;9211;48.818;9.312;2023-05-10T04:30:43;2.50;;;0.90;;
18172;SDS011;9211;48.818;9.312;2023-05-10T04:33:10;1.40;;;1.00;;
18172;SDS011;9211;48.818;9.312;2023-05-10T04:35:39;2.38;;;1.00;;
18172;SDS011;9211;48.818;9.312;2023-05-10T04:38:06;2.50;;;1.05;;
18172;SDS011;9211;48.818;9.312;2023-05-10T04:40:33;1.90;;;1.20;;
18172;SDS011;9211;48.818;9.312;2023-05-10T04:43:00;2.33;;;1.05;;
18172;SDS011;9211;48.818;9.312;2023-05-10T04:45:27;5.20;;;1.15;;
18172;SDS011;9211;48.818;9.312;2023-05-10T04:47:55;1.58;;;1.08;;
18172;SDS011;9211;48.818;9.312;2023-05-10T04:50:22;2.00;;;1.10;;
18172;SDS011;9211;48.818;9.312;2023-05-10T04:52:52;3.33;;;1.30;;
18172;SDS011;9211;48.818;9.312;2023-05-10T04:55:19;3.47;;;1.20;;
18172;SDS011;9211;48.818;9.312;2023-05-10T04:57:46;4.60;;;1.30;;
18172;SDS011;9211;48.818;9.312;2023-05-10T05:00:13;1.98;;;1.10;;
18172;SDS011;9211;48.818;9.312;2023-05-10T05:02:42;2.10;;;1.20;;
18172;SDS011;9211;48.818;9.312;2023-05-10T05:05:10;2.97;;;1.20;;
18172;SDS011;9211;48.818;9.312;2023-05-10T05:07:37;2.63;;;1.40;;
18172;SDS011;9211;48.818;9.312;2023-05-10T05:10:06;2.20;;;1.17;;
18172;SDS011;9211;48.818;9.312;2023-05-10T05:12:34;3.72;;;1.50;;
18172;SDS011;9211;48.818;9.312;2023-05-10T05:15:01;3.13;;;1.30;;
18172;SDS011;9211;48.818;9.312;2023-05-10T05:17:29;3.83;;;1.30;;
18172;SDS011;9211;48.818;9.312;2023-05-10T05:19:56;3.15;;;1.40;;
18172;SDS011;9211;48.818;9.312;2023-05-10T05:22:23;3.75;;;1.30;;
18172;SDS011;9211;48.818;9.312;2023-05-10T05:24:52;4.10;;;1.30;;
18172;SDS011;9211;48.818;9.312;2023-05-10T05:27:21;2.53;;;1.23;;
18172;SDS011;9211;48.818;9.312;2023-05-10T05:29:49;2.97;;;1.08;;
18172;SDS011;9211;48.818;9.312;2023-05-10T05:32:16;2.50;;;1.10;;
18172;SDS011;9211;48.818;9.312;2023-05-10T05:34:44;3.10;;;1.10;;
18172;SDS011;9211;48.818;9.312;2023-05-10T05:37:12;3.28;;;1.30;;
18172;SDS011;9211;48.818;9.312;2023-05-10T05:39:40;4.80;;;1.30;;
18172;SDS011;9211;48.818;9.312;2023-05-10T05:42:10;4.32;;;1.40;;
18172;SDS011;9211;48.818;9.312;2023-05-10T05:44:39;5.00;;;1.48;;
18172;SDS011;9211;48.818;9.312;2023-05-10T05:47:06;4.75;;;1.50;;
18172;SDS011;9211;48.818;9.312;2023-05-10T05:49:33;6.25;;;1.60;;
18172;SDS011;9211;48.818;9.312;2023-05-10T05:52:00;6.47;;;1.65;;
18172;SDS011;9211;48.818;9.312;2023-05-10T05:54:29;5.68;;;1.65;;
18172;SDS011;9211;48.818;9.312;2023-05-10T05:56:57;3.45;;;1.25;;
18172;SDS011;9211;48.818;9.312;2023-05-10T05:59:24;6.20;;;1.30;;
18172;SDS011;9211;48.818;9.312;2023-05-10T06:01:53;4.53;;;1.20;;
18172;SDS011;9211;48.818;9.312;2023-05-10T06:04:20;2.70;;;1.13;;
18172;SDS011;9211;48.818;9.312;2023-05-10T06:06:47;2.47;;;1.00;;
18172;SDS011;9211;48.818;9.312;2023-05-10T06:09:14;4.35;;;1.20;;
18172;SDS011;9211;48.818;9.312;2023-05-10T06:11:41;3.90;;;1.10;;
18172;SDS011;9211;48.818;9.312;2023-05-10T06:14:08;1.88;;;0.90;;
18172;SDS011;9211;48.818;9.312;2023-05-10T06:16:35;2.33;;;1.00;;
18172;SDS011;9211;48.818;9.312;2023-05-10T06:19:04;2.05;;;0.90;;
18172;SDS011;9211;48.818;9.312;2023-05-10T06:21:31;2.60;;;1.17;;
18172;SDS011;9211;48.818;9.312;2023-05-10T06:23:58;2.85;;;1.00;;
18172;SDS011;9211;48.818;9.312;2023-05-10T06:26:25;5.22;;;1.40;;
18172;SDS011;9211;48.818;9.312;2023-05-10T06:28:52;2.70;;;1.33;;
18172;SDS011;9211;48.818;9.312;2023-05-10T06:31:19;4.00;;;1.20;;
18172;SDS011;9211;48.818;9.312;2023-05-10T06:33:46;3.58;;;1.08;;
18172;SDS011;9211;48.818;9.312;2023-05-10T06:36:14;2.67;;;1.00;;
18172;SDS011;9211;48.818;9.312;2023-05-10T06:38:41;2.78;;;0.88;;
18172;SDS011;9211;48.818;9.312;2023-05-10T06:41:08;2.65;;;0.98;;
18172;SDS011;9211;48.818;9.312;2023-05-10T06:43:35;3.73;;;0.90;;
18172;SDS011;9211;48.818;9.312;2023-05-10T06:46:05;5.93;;;1.15;;
18172;SDS011;9211;48.818;9.312;2023-05-10T06:48:38;3.20;;;1.17;;
18172;SDS011;9211;48.818;9.312;2023-05-10T06:51:05;3.85;;;1.08;;
18172;SDS011;9211;48.818;9.312;2023-05-10T06:53:34;2.90;;;1.20;;
18172;SDS011;9211;48.818;9.312;2023-05-10T06:56:01;2.60;;;1.05;;
18172;SDS011;9211;48.818;9.312;2023-05-10T06:58:28;3.97;;;1.10;;
18172;SDS011;9211;48.818;9.312;2023-05-10T07:01:01;4.55;;;1.02;;
18172;SDS011;9211;48.818;9.312;2023-05-10T07:03:28;2.08;;;1.02;;
18172;SDS011;9211;48.818;9.312;2023-05-10T07:05:59;4.00;;;1.00;;
18172;SDS011;9211;48.818;9.312;2023-05-10T07:08:28;4.22;;;1.10;;
18172;SDS011;9211;48.818;9.312;2023-05-10T07:11:00;2.50;;;1.60;;
18172;SDS011;9211;48.818;9.312;2023-05-10T07:13:28;2.35;;;1.10;;
18172;SDS011;9211;48.818;9.312;2023-05-10T07:15:56;2.08;;;1.10;;
18172;SDS011;9211;48.818;9.312;2023-05-10T07:18:23;4.20;;;0.90;;
18172;SDS011;9211;48.818;9.312;2023-05-10T07:20:51;2.50;;;1.02;;
18172;SDS011;9211;48.818;9.312;2023-05-10T07:23:18;2.78;;;1.08;;
18172;SDS011;9211;48.818;9.312;2023-05-10T07:25:45;2.60;;;1.27;;
18172;SDS011;9211;48.818;9.312;2023-05-10T07:28:14;2.45;;;1.17;;
18172;SDS011;9211;48.818;9.312;2023-05-10T07:30:42;1.67;;;0.95;;
18172;SDS011;9211;48.818;9.312;2023-05-10T07:33:10;2.13;;;1.10;;
18172;SDS011;9211;48.818;9.312;2023-05-10T07:35:39;2.65;;;1.00;;
18172;SDS011;9211;48.818;9.312;2023-05-10T07:38:06;2.40;;;1.10;;
18172;SDS011;9211;48.818;9.312;2023-05-10T07:40:33;1.88;;;1.02;;
18172;SDS011;9211;48.818;9.312;2023-05-10T07:43:00;2.65;;;1.10;;
18172;SDS011;9211;48.818;9.312;2023-05-10T07:45:28;2.90;;;0.90;;
18172;SDS011;9211;48.818;9.312;2023-05-10T07:47:55;2.67;;;0.98;;
18172;SDS011;9211;48.818;9.312;2023-05-10T07:50:22;3.30;;;1.15;;
18172;SDS011;9211;48.818;9.312;2023-05-10T07:52:49;3.20;;;1.10;;
18172;SDS011;9211;48.818;9.312;2023-05-10T07:55:17;1.47;;;0.87;;
18172;SDS011;9211;48.818;9.312;2023-05-10T07:57:44;3.30;;;1.08;;
18172;SDS011;9211;48.818;9.312;2023-05-10T08:00:12;1.60;;;0.80;;
18172;SDS011;9211;48.818;9.312;2023-05-10T08:02:44;3.90;;;1.30;;
18172;SDS011;9211;48.818;9.312;2023-05-10T08:05:11;4.30;;;1.08;;
18172;SDS011;9211;48.818;9.312;2023-05-10T08:07:38;4.30;;;0.98;;
18172;SDS011;9211;48.818;9.312;2023-05-10T08:10:06;1.77;;;0.82;;
18172;SDS011;9211;48.818;9.312;2023-05-10T08:12:34;2.15;;;0.90;;
18172;SDS011;9211;48.818;9.312;2023-05-10T08:15:01;2.60;;;0.80;;
18172;SDS011;9211;48.818;9.312;2023-05-10T08:17:28;4.53;;;0.88;;
18172;SDS011;9211;48.818;9.312;2023-05-10T08:19:56;2.90;;;0.90;;
18172;SDS011;9211;48.818;9.312;2023-05-10T08:22:23;2.08;;;0.80;;
18172;SDS011;9211;48.818;9.312;2023-05-10T08:24:51;1.10;;;0.70;;
18172;SDS011;9211;48.818;9.312;2023-05-10T08:27:18;3.38;;;0.95;;
18172;SDS011;9211;48.818;9.312;2023-05-10T08:29:45;2.38;;;0.85;;
18172;SDS011;9211;48.818;9.312;2023-05-10T08:32:12;3.28;;;0.90;;
18172;SDS011;9211;48.818;9.312;2023-05-10T08:34:39;2.17;;;0.80;;
18172;SDS011;9211;48.818;9.312;2023-05-10T08:37:07;2.20;;;0.90;;
18172;SDS011;9211;48.818;9.312;2023-05-10T08:39:35;3.97;;;0.93;;
18172;SDS011;9211;48.818;9.312;2023-05-10T08:42:03;2.20;;;0.80;;
18172;SDS011;9211;48.818;9.312;2023-05-10T08:44:32;2.13;;;0.60;;
18172;SDS011;9211;48.818;9.312;2023-05-10T08:47:01;1.73;;;0.60;;
18172;SDS011;9211;48.818;9.312;2023-05-10T08:49:31;3.00;;;0.80;;
18172;SDS011;9211;48.818;9.312;2023-05-10T08:52:01;1.58;;;0.70;;
18172;SDS011;9211;48.818;9.312;2023-05-10T08:54:32;1.70;;;0.65;;
18172;SDS011;9211;48.818;9.312;2023-05-10T08:56:59;1.00;;;0.50;;
18172;SDS011;9211;48.818;9.312;2023-05-10T08:59:27;1.08;;;0.65;;
18172;SDS011;9211;48.818;9.312;2023-05-10T09:01:55;0.88;;;0.68;;
18172;SDS011;9211;48.818;9.312;2023-05-10T09:04:24;1.00;;;0.60;;
18172;SDS011;9211;48.818;9.312;2023-05-10T09:06:51;0.83;;;0.50;;
18172;SDS011;9211;48.818;9.312;2023-05-10T09:09:18;4.53;;;0.80;;
18172;SDS011;9211;48.818;9.312;2023-05-10T09:11:48;1.48;;;0.60;;
18172;SDS011;9211;48.818;9.312;2023-05-10T09:14:15;2.63;;;0.60;;
18172;SDS011;9211;48.818;9.312;2023-05-10T09:16:42;1.73;;;0.50;;
18172;SDS011;9211;48.818;9.312;2023-05-10T09:19:09;2.08;;;0.35;;
18172;SDS011;9211;48.818;9.312;2023-05-10T09:21:37;2.03;;;0.40;;
18172;SDS011;9211;48.818;9.312;2023-05-10T09:24:04;0.60;;;0.50;;
18172;SDS011;9211;48.818;9.312;2023-05-10T09:26:32;1.13;;;0.40;;
18172;SDS011;9211;48.818;9.312;2023-05-10T09:29:02;1.73;;;0.40;;
18172;SDS011;9211;48.818;9.312;2023-05-10T09:31:46;1.40;;;0.43;;
18172;SDS011;9211;48.818;9.312;2023-05-10T09:34:16;0.93;;;0.40;;
18172;SDS011;9211;48.818;9.312;2023-05-10T09:36:54;0.88;;;0.40;;
18172;SDS011;9211;48.818;9.312;2023-05-10T09:39:29;1.83;;;0.43;;
18172;SDS011;9211;48.818;9.312;2023-05-10T09:41:58;1.10;;;0.40;;
18172;SDS011;9211;48.818;9.312;2023-05-10T09:44:27;2.97;;;0.50;;
18172;SDS011;9211;48.818;9.312;2023-05-10T09:46:54;2.00;;;0.50;;
18172;SDS011;9211;48.818;9.312;2023-05-10T09:49:22;0.60;;;0.40;;
18172;SDS011;9211;48.818;9.312;2023-05-10T09:51:59;2.37;;;0.60;;
18172;SDS011;9211;48.818;9.312;2023-05-10T09:54:27;0.73;;;0.55;;
18172;SDS011;9211;48.818;9.312;2023-05-10T09:56:54;1.88;;;0.50;;
18172;SDS011;9211;48.818;9.312;2023-05-10T09:59:21;0.50;;;0.30;;
18172;SDS011;9211;48.818;9.312;2023-05-10T10:01:53;1.05;;;0.50;;
18172;SDS011;9211;48.818;9.312;2023-05-10T10:04:22;1.52;;;0.43;;
18172;SDS011;9211;48.818;9.312;2023-05-10T10:06:59;1.95;;;0.45;;
18172;SDS011;9211;48.818;9.312;2023-05-10T10:09:28;1.35;;;0.45;;
18172;SDS011;9211;48.818;9.312;2023-05-10T10:11:55;1.05;;;0.40;;
18172;SDS011;9211;48.818;9.312;2023-05-10T10:14:22;2.30;;;0.60;;
18172;SDS011;9211;48.818;9.312;2023-05-10T10:16:50;0.75;;;0.43;;
18172;SDS011;9211;48.818;9.312;2023-05-10T10:19:19;0.80;;;0.50;;
18172;SDS011;9211;48.818;9.312;2023-05-10T10:21:46;1.27;;;0.40;;
18172;SDS011;9211;48.818;9.312;2023-05-10T10:24:13;2.00;;;0.63;;
18172;SDS011;9211;48.818;9.312;2023-05-10T10:26:40;2.40;;;0.50;;
18172;SDS011;9211;48.818;9.312;2023-05-10T10:29:12;1.75;;;0.60;;
18172;SDS011;9211;48.818;9.312;2023-05-10T10:31:47;1.13;;;0.60;;
18172;SDS011;9211;48.818;9.312;2023-05-10T10:34:25;2.47;;;0.55;;
18172;SDS011;9211;48.818;9.312;2023-05-10T10:36:54;0.95;;;0.40;;
18172;SDS011;9211;48.818;9.312;2023-05-10T10:39:22;1.10;;;0.43;;
18172;SDS011;9211;48.818;9.312;2023-05-10T10:41:51;2.78;;;0.55;;
18172;SDS011;9211;48.818;9.312;2023-05-10T10:44:22;1.45;;;0.60;;
18172;SDS011;9211;48.818;9.312;2023-05-10T10:46:59;1.50;;;0.50;;
18172;SDS011;9211;48.818;9.312;2023-05-10T10:49:30;0.47;;;0.40;;
18172;SDS011;9211;48.818;9.312;2023-05-10T10:52:13;0.90;;;0.40;;
18172;SDS011;9211;48.818;9.312;2023-05-10T10:54:41;1.15;;;0.60;;
18172;SDS011;9211;48.818;9.312;2023-05-10T10:57:17;1.50;;;0.50;;
18172;SDS011;9211;48.818;9.312;2023-05-10T10:59:46;1.40;;;0.50;;
18172;SDS011;9211;48.818;9.312;2023-05-10T11:02:32;1.40;;;0.60;;
18172;SDS011;9211;48.818;9.312;2023-05-10T11:05:03;2.10;;;0.30;;
18172;SDS011;9211;48.818;9.312;2023-05-10T11:08:08;0.68;;;0.40;;
18172;SDS011;9211;48.818;9.312;2023-05-10T11:10:50;1.60;;;0.35;;
18172;SDS011;9211;48.818;9.312;2023-05-10T11:13:29;3.42;;;0.55;;
18172;SDS011;9211;48.818;9.312;2023-05-10T11:15:58;1.05;;;0.43;;
18172;SDS011;9211;48.818;9.312;2023-05-10T11:18:36;1.60;;;0.33;;
18172;SDS011;9211;48.818;9.312;2023-05-10T11:21:05;0.95;;;0.30;;
18172;SDS011;9211;48.818;9.312;2023-05-10T11:23:47;1.95;;;0.40;;
18172;SDS011;9211;48.818;9.312;2023-05-10T11:26:15;1.73;;;0.45;;
18172;SDS011;9211;48.818;9.312;2023-05-10T11:28:43;1.75;;;0.52;;
18172;SDS011;9211;48.818;9.312;2023-05-10T11:31:12;1.85;;;0.50;;
18172;SDS011;9211;48.818;9.312;2023-05-10T11:33:43;1.27;;;0.40;;
18172;SDS011;9211;48.818;9.312;2023-05-10T11:36:13;2.90;;;0.50;;
18172;SDS011;9211;48.818;9.312;2023-05-10T11:38:41;2.00;;;0.40;;
18172;SDS011;9211;48.818;9.312;2023-05-10T11:41:08;1.95;;;0.40;;
18172;SDS011;9211;48.818;9.312;2023-05-10T11:43:36;2.05;;;0.50;;
18172;SDS011;9211;48.818;9.312;2023-05-10T11:46:04;1.08;;;0.55;;
18172;SDS011;9211;48.818;9.312;2023-05-10T11:48:32;1.48;;;0.63;;
18172;SDS011;9211;48.818;9.312;2023-05-10T11:51:00;1.02;;;0.40;;
18172;SDS011;9211;48.818;9.312;2023-05-10T11:53:29;1.52;;;0.50;;
18172;SDS011;9211;48.818;9.312;2023-05-10T11:56:02;4.27;;;0.50;;
18172;SDS011;9211;48.818;9.312;2023-05-10T11:58:30;2.03;;;0.77;;
18172;SDS011;9211;48.818;9.312;2023-05-10T12:00:57;7.50;;;3.20;;
18172;SDS011;9211;48.818;9.312;2023-05-10T12:03:25;2.35;;;0.98;;
18172;SDS011;9211;48.818;9.312;2023-05-10T12:05:52;0.85;;;0.50;;
18172;SDS011;9211;48.818;9.312;2023-05-10T12:08:20;2.53;;;0.73;;
18172;SDS011;9211;48.818;9.312;2023-05-10T12:10:50;2.10;;;0.60;;
18172;SDS011;9211;48.818;9.312;2023-05-10T12:13:17;2.00;;;0.60;;
18172;SDS011;9211;48.818;9.312;2023-05-10T12:15:46;1.80;;;0.50;;
18172;SDS011;9211;48.818;9.312;2023-05-10T12:18:13;1.80;;;0.77;;
18172;SDS011;9211;48.818;9.312;2023-05-10T12:20:41;2.65;;;0.68;;
18172;SDS011;9211;48.818;9.312;2023-05-10T12:23:08;2.25;;;0.88;;
18172;SDS011;9211;48.818;9.312;2023-05-10T12:25:36;3.13;;;0.90;;
18172;SDS011;9211;48.818;9.312;2023-05-10T12:28:06;1.65;;;0.60;;
18172;SDS011;9211;48.818;9.312;2023-05-10T12:30:35;3.08;;;0.80;;
18172;SDS011;9211;48.818;9.312;2023-05-10T12:33:07;1.83;;;0.70;;
18172;SDS011;9211;48.818;9.312;2023-05-10T12:35:43;3.78;;;0.80;;
18172;SDS011;9211;48.818;9.312;2023-05-10T12:38:27;4.00;;;0.70;;
18172;SDS011;9211;48.818;9.312;2023-05-10T12:40:56;2.28;;;0.80;;
18172;SDS011;9211;48.818;9.312;2023-05-10T12:43:25;2.40;;;0.70;;
18172;SDS011;9211;48.818;9.312;2023-05-10T12:45:52;2.00;;;0.70;;
18172;SDS011;9211;48.818;9.312;2023-05-10T12:48:19;2.33;;;0.70;;
18172;SDS011;9211;48.818;9.312;2023-05-10T12:50:46;1.42;;;0.70;;
18172;SDS011;9211;48.818;9.312;2023-05-10T12:53:13;3.47;;;0.90;;
18172;SDS011;9211;48.818;9.312;2023-05-10T12:55:41;3.70;;;0.68;;
18172;SDS011;9211;48.818;9.312;2023-05-10T12:58:08;1.83;;;0.63;;
18172;SDS011;9211;48.818;9.312;2023-05-10T13:00:36;4.95;;;0.70;;
18172;SDS011;9211;48.818;9.312;2023-05-10T13:03:04;2.10;;;0.73;;
18172;SDS011;9211;48.818;9.312;2023-05-10T13:05:31;2.50;;;0.70;;
18172;SDS011;9211;48.818;9.312;2023-05-10T13:07:58;2.88;;;0.80;;
18172;SDS011;9211;48.818;9.312;2023-05-10T13:10:26;2.35;;;0.82;;
18172;SDS011;9211;48.818;9.312;2023-05-10T13:12:54;2.90;;;0.70;;
18172;SDS011;9211;48.818;9.312;2023-05-10T13:15:21;2.63;;;0.60;;
18172;SDS011;9211;48.818;9.312;2023-05-10T13:17:49;1.43;;;0.60;;
18172;SDS011;9211;48.818;9.312;2023-05-10T13:20:17;2.55;;;0.70;;
18172;SDS011;9211;48.818;9.312;2023-05-10T13:22:44;2.20;;;0.70;;
18172;SDS011;9211;48.818;9.312;2023-05-10T13:25:11;2.42;;;0.70;;
18172;SDS011;9211;48.818;9.312;2023-05-10T13:27:42;1.90;;;0.60;;
18172;SDS011;9211;48.818;9.312;2023-05-10T13:30:10;2.25;;;0.65;;
18172;SDS011;9211;48.818;9.312;2023-05-10T13:32:37;1.95;;;0.70;;
18172;SDS011;9211;48.818;9.312;2023-05-10T13:35:10;2.28;;;0.80;;
18172;SDS011;9211;48.818;9.312;2023-05-10T13:37:37;2.13;;;0.77;;
18172;SDS011;9211;48.818;9.312;2023-05-10T13:40:04;3.97;;;0.80;;
18172;SDS011;9211;48.818;9.312;2023-05-10T13:42:32;3.15;;;0.70;;
18172;SDS011;9211;48.818;9.312;2023-05-10T13:44:59;5.03;;;0.77;;
18172;SDS011;9211;48.818;9.312;2023-05-10T13:47:26;1.80;;;0.77;;
18172;SDS011;9211;48.818;9.312;2023-05-10T13:49:53;2.60;;;0.60;;
18172;SDS011;9211;48.818;9.312;2023-05-10T13:52:22;2.17;;;0.60;;
18172;SDS011;9211;48.818;9.312;2023-05-10T13:54:49;2.63;;;0.60;;
18172;SDS011;9211;48.818;9.312;2023-05-10T13:57:17;2.20;;;0.80;;
18172;SDS011;9211;48.818;9.312;2023-05-10T13:59:44;2.05;;;0.80;;
18172;SDS011;9211;48.818;9.312;2023-05-10T14:02:11;5.07;;;1.00;;
18172;SDS011;9211;48.818;9.312;2023-05-10T14:04:38;4.45;;;0.70;;
18172;SDS011;9211;48.818;9.312;2023-05-10T14:07:05;4.22;;;0.85;;
18172;SDS011;9211;48.818;9.312;2023-05-10T14:09:33;2.85;;;0.70;;
18172;SDS011;9211;48.818;9.312;2023-05-10T14:12:01;2.75;;;0.82;;
18172;SDS011;9211;48.818;9.312;2023-05-10T14:14:28;3.08;;;0.82;;
18172;SDS011;9211;48.818;9.312;2023-05-10T14:16:55;3.00;;;0.82;;
18172;SDS011;9211;48.818;9.312;2023-05-10T14:19:22;2.20;;;0.70;;
18172;SDS011;9211;48.818;9.312;2023-05-10T14:21:49;2.78;;;0.90;;
18172;SDS011;9211;48.818;9.312;2023-05-10T14:24:17;1.92;;;0.80;;
18172;SDS011;9211;48.818;9.312;2023-05-10T14:26:45;3.33;;;0.70;;
18172;SDS011;9211;48.818;9.312;2023-05-10T14:29:12;2.60;;;0.70;;
18172;SDS011;9211;48.818;9.312;2023-05-10T14:31:39;1.92;;;0.60;;
18172;SDS011;9211;48.818;9.312;2023-05-10T14:34:06;2.22;;;0.60;;
18172;SDS011;9211;48.818;9.312;2023-05-10T14:36:33;4.50;;;0.77;;
18172;SDS011;9211;48.818;9.312;2023-05-10T14:39:00;2.90;;;0.75;;
18172;SDS011;9211;48.818;9.312;2023-05-10T14:41:28;3.30;;;0.80;;
18172;SDS011;9211;48.818;9.312;2023-05-10T14:43:56;2.03;;;0.80;;
18172;SDS011;9211;48.818;9.312;2023-05-10T14:46:23;2.58;;;0.82;;
18172;SDS011;9211;48.818;9.312;2023-05-10T14:48:50;2.05;;;0.80;;
18172;SDS011;9211;48.818;9.312;2023-05-10T14:51:17;1.92;;;0.70;;
18172;SDS011;9211;48.818;9.312;2023-05-10T14:53:46;3.40;;;0.70;;
18172;SDS011;9211;48.818;9.312;2023-05-10T14:56:14;1.77;;;0.70;;
18172;SDS011;9211;48.818;9.312;2023-05-10T14:58:41;4.23;;;0.80;;
18172;SDS011;9211;48.818;9.312;2023-05-10T15:01:10;3.25;;;0.70;;
18172;SDS011;9211;48.818;9.312;2023-05-10T15:03:37;1.10;;;0.52;;
18172;SDS011;9211;48.818;9.312;2023-05-10T15:06:05;1.50;;;0.60;;
18172;SDS011;9211;48.818;9.312;2023-05-10T15:08:32;1.40;;;0.50;;
18172;SDS011;9211;48.818;9.312;2023-05-10T15:10:59;2.67;;;0.50;;
18172;SDS011;9211;48.818;9.312;2023-05-10T15:13:26;3.30;;;0.60;;
18172;SDS011;9211;48.818;9.312;2023-05-10T15:15:53;3.60;;;0.70;;
18172;SDS011;9211;48.818;9.312;2023-05-10T15:18:22;2.20;;;0.60;;